sensor_id;sensor_type;location;lat;lon;timestamp;P1;durP1;ratioP1;P2;durP2;ratioP2
59062;SDS011;44851;45.648;9.004;2023-02-19T00:01:43;16.97;;;12.20;;
59062;SDS011;44851;45.648;9.004;2023-02-19T00:04:14;15.87;;;11.20;;
59062;SDS011;44851;45.648;9.004;2023-02-19T00:06:41;16.20;;;11.33;;
59062;SDS011;44851;45.648;9.004;2023-02-19T00:09:08;14.90;;;10.67;;
59062;SDS011;44851;45.648;9.004;2023-02-19T00:11:35;17.10;;;11.30;;
59062;SDS011;44851;45.648;9.004;2023-02-19T00:14:01;16.23;;;11.47;;
59062;SDS011;44851;45.648;9.004;2023-02-19T00:16:28;16.77;;;12.03;;
59062;SDS011;44851;45.648;9.004;2023-02-19T00:18:56;16.37;;;11.07;;
59062;SDS011;44851;45.648;9.004;2023-02-19T00:21:23;15.70;;;10.60;;
59062;SDS011;44851;45.648;9.004;2023-02-19T00:23:53;18.17;;;12.23;;
59062;SDS011;44851;45.648;9.004;2023-02-19T00:26:20;19.53;;;11.73;;
59062;SDS011;44851;45.648;9.004;2023-02-19T00:28:46;19.30;;;12.40;;
59062;SDS011;44851;45.648;9.004;2023-02-19T00:34:08;17.40;;;12.10;;
59062;SDS011;44851;45.648;9.004;2023-02-19T00:36:35;17.37;;;12.83;;
59062;SDS011;44851;45.648;9.004;2023-02-19T00:39:02;17.43;;;11.77;;
59062;SDS011;44851;45.648;9.004;2023-02-19T00:41:29;17.43;;;11.87;;
59062;SDS011;44851;45.648;9.004;2023-02-19T00:49:02;16.57;;;11.57;;
59062;SDS011;44851;45.648;9.004;2023-02-19T00:51:29;17.53;;;11.90;;
59062;SDS011;44851;45.648;9.004;2023-02-19T00:53:57;19.87;;;12.43;;
59062;SDS011;44851;45.648;9.004;2023-02-19T00:56:23;14.43;;;10.97;;
59062;SDS011;44851;45.648;9.004;2023-02-19T00:58:48;18.97;;;12.17;;
59062;SDS011;44851;45.648;9.004;2023-02-19T01:01:14;18.07;;;12.43;;
59062;SDS011;44851;45.648;9.004;2023-02-19T01:03:40;15.47;;;10.63;;
59062;SDS011;44851;45.648;9.004;2023-02-19T01:06:07;19.17;;;12.40;;
59062;SDS011;44851;45.648;9.004;2023-02-19T01:08:34;17.17;;;12.67;;
59062;SDS011;44851;45.648;9.004;2023-02-19T01:11:00;20.03;;;13.10;;
59062;SDS011;44851;45.648;9.004;2023-02-19T01:13:27;18.23;;;12.60;;
59062;SDS011;44851;45.648;9.004;2023-02-19T01:15:53;18.67;;;12.90;;
59062;SDS011;44851;45.648;9.004;2023-02-19T01:18:26;17.90;;;11.97;;
59062;SDS011;44851;45.648;9.004;2023-02-19T01:20:51;20.00;;;12.23;;
59062;SDS011;44851;45.648;9.004;2023-02-19T01:23:16;21.03;;;12.27;;
59062;SDS011;44851;45.648;9.004;2023-02-19T01:25:42;19.47;;;12.70;;
59062;SDS011;44851;45.648;9.004;2023-02-19T01:28:07;19.97;;;12.67;;
59062;SDS011;44851;45.648;9.004;2023-02-19T01:30:36;21.33;;;13.67;;
59062;SDS011;44851;45.648;9.004;2023-02-19T01:33:03;20.50;;;13.57;;
59062;SDS011;44851;45.648;9.004;2023-02-19T01:35:29;18.53;;;12.43;;
59062;SDS011;44851;45.648;9.004;2023-02-19T01:37:55;22.50;;;13.97;;
59062;SDS011;44851;45.648;9.004;2023-02-19T01:40:20;17.53;;;13.27;;
59062;SDS011;44851;45.648;9.004;2023-02-19T01:42:46;20.50;;;13.43;;
59062;SDS011;44851;45.648;9.004;2023-02-19T01:47:46;20.40;;;13.90;;
59062;SDS011;44851;45.648;9.004;2023-02-19T01:50:35;25.40;;;14.40;;
59062;SDS011;44851;45.648;9.004;2023-02-19T01:53:05;16.73;;;12.60;;
59062;SDS011;44851;45.648;9.004;2023-02-19T01:55:33;19.37;;;13.80;;
59062;SDS011;44851;45.648;9.004;2023-02-19T01:57:59;22.27;;;14.90;;
59062;SDS011;44851;45.648;9.004;2023-02-19T02:00:27;22.83;;;14.97;;
59062;SDS011;44851;45.648;9.004;2023-02-19T02:02:53;20.40;;;13.77;;
59062;SDS011;44851;45.648;9.004;2023-02-19T02:08:19;17.50;;;12.20;;
59062;SDS011;44851;45.648;9.004;2023-02-19T02:11:03;24.17;;;14.77;;
59062;SDS011;44851;45.648;9.004;2023-02-19T02:13:29;22.60;;;13.87;;
59062;SDS011;44851;45.648;9.004;2023-02-19T02:15:59;19.33;;;13.30;;
59062;SDS011;44851;45.648;9.004;2023-02-19T02:21:17;21.73;;;13.83;;
59062;SDS011;44851;45.648;9.004;2023-02-19T02:32:07;19.50;;;12.80;;
59062;SDS011;44851;45.648;9.004;2023-02-19T02:34:46;20.23;;;13.63;;
59062;SDS011;44851;45.648;9.004;2023-02-19T02:37:17;21.63;;;13.07;;
59062;SDS011;44851;45.648;9.004;2023-02-19T02:39:43;18.70;;;12.53;;
59062;SDS011;44851;45.648;9.004;2023-02-19T02:42:10;20.80;;;13.43;;
59062;SDS011;44851;45.648;9.004;2023-02-19T02:44:54;21.57;;;13.30;;
59062;SDS011;44851;45.648;9.004;2023-02-19T02:48:02;18.60;;;12.23;;
59062;SDS011;44851;45.648;9.004;2023-02-19T02:50:34;22.80;;;12.33;;
59062;SDS011;44851;45.648;9.004;2023-02-19T02:53:37;19.30;;;12.73;;
59062;SDS011;44851;45.648;9.004;2023-02-19T02:56:27;20.10;;;12.57;;
59062;SDS011;44851;45.648;9.004;2023-02-19T02:58:55;19.60;;;12.63;;
59062;SDS011;44851;45.648;9.004;2023-02-19T03:01:32;18.97;;;12.77;;
59062;SDS011;44851;45.648;9.004;2023-02-19T03:07:02;19.77;;;13.57;;
59062;SDS011;44851;45.648;9.004;2023-02-19T03:09:36;19.37;;;12.90;;
59062;SDS011;44851;45.648;9.004;2023-02-19T03:12:13;18.27;;;12.23;;
59062;SDS011;44851;45.648;9.004;2023-02-19T03:15:01;18.47;;;12.13;;
59062;SDS011;44851;45.648;9.004;2023-02-19T03:17:52;18.70;;;12.73;;
59062;SDS011;44851;45.648;9.004;2023-02-19T03:20:40;19.37;;;12.30;;
59062;SDS011;44851;45.648;9.004;2023-02-19T03:23:09;19.30;;;12.37;;
59062;SDS011;44851;45.648;9.004;2023-02-19T03:25:38;16.43;;;11.00;;
59062;SDS011;44851;45.648;9.004;2023-02-19T03:28:23;21.03;;;12.57;;
59062;SDS011;44851;45.648;9.004;2023-02-19T03:31:12;18.13;;;12.57;;
59062;SDS011;44851;45.648;9.004;2023-02-19T03:33:40;19.13;;;12.00;;
59062;SDS011;44851;45.648;9.004;2023-02-19T03:36:09;16.43;;;11.83;;
59062;SDS011;44851;45.648;9.004;2023-02-19T03:39:19;16.70;;;11.63;;
59062;SDS011;44851;45.648;9.004;2023-02-19T03:44:45;17.20;;;11.40;;
59062;SDS011;44851;45.648;9.004;2023-02-19T03:47:23;20.03;;;12.27;;
59062;SDS011;44851;45.648;9.004;2023-02-19T03:55:31;23.27;;;13.57;;
59062;SDS011;44851;45.648;9.004;2023-02-19T04:01:09;18.13;;;12.40;;
59062;SDS011;44851;45.648;9.004;2023-02-19T04:03:44;19.43;;;12.07;;
59062;SDS011;44851;45.648;9.004;2023-02-19T04:06:17;19.20;;;12.47;;
59062;SDS011;44851;45.648;9.004;2023-02-19T04:08:47;18.20;;;12.80;;
59062;SDS011;44851;45.648;9.004;2023-02-19T04:11:16;21.87;;;12.17;;
59062;SDS011;44851;45.648;9.004;2023-02-19T04:13:53;17.73;;;11.80;;
59062;SDS011;44851;45.648;9.004;2023-02-19T04:16:23;20.27;;;12.53;;
59062;SDS011;44851;45.648;9.004;2023-02-19T04:18:53;16.73;;;11.07;;
59062;SDS011;44851;45.648;9.004;2023-02-19T04:21:23;20.87;;;12.17;;
59062;SDS011;44851;45.648;9.004;2023-02-19T04:23:49;18.13;;;12.50;;
59062;SDS011;44851;45.648;9.004;2023-02-19T04:26:15;19.70;;;11.90;;
59062;SDS011;44851;45.648;9.004;2023-02-19T04:28:45;18.93;;;11.20;;
59062;SDS011;44851;45.648;9.004;2023-02-19T04:31:10;21.43;;;11.87;;
59062;SDS011;44851;45.648;9.004;2023-02-19T04:33:36;18.90;;;12.57;;
59062;SDS011;44851;45.648;9.004;2023-02-19T04:36:02;21.07;;;12.50;;
59062;SDS011;44851;45.648;9.004;2023-02-19T04:38:28;19.87;;;12.13;;
59062;SDS011;44851;45.648;9.004;2023-02-19T04:40:53;19.33;;;13.37;;
59062;SDS011;44851;45.648;9.004;2023-02-19T04:43:19;18.43;;;11.70;;
59062;SDS011;44851;45.648;9.004;2023-02-19T04:45:44;20.07;;;13.03;;
59062;SDS011;44851;45.648;9.004;2023-02-19T04:48:10;22.40;;;13.20;;
59062;SDS011;44851;45.648;9.004;2023-02-19T04:50:39;21.80;;;14.23;;
59062;SDS011;44851;45.648;9.004;2023-02-19T04:53:05;23.97;;;14.70;;
59062;SDS011;44851;45.648;9.004;2023-02-19T04:55:31;21.70;;;14.37;;
59062;SDS011;44851;45.648;9.004;2023-02-19T04:57:56;22.30;;;13.27;;
59062;SDS011;44851;45.648;9.004;2023-02-19T05:00:22;23.43;;;13.27;;
59062;SDS011;44851;45.648;9.004;2023-02-19T05:02:47;20.90;;;13.50;;
59062;SDS011;44851;45.648;9.004;2023-02-19T05:05:13;24.80;;;14.77;;
59062;SDS011;44851;45.648;9.004;2023-02-19T05:07:38;23.87;;;14.70;;
59062;SDS011;44851;45.648;9.004;2023-02-19T05:10:04;22.57;;;13.83;;
59062;SDS011;44851;45.648;9.004;2023-02-19T05:12:29;23.63;;;14.03;;
59062;SDS011;44851;45.648;9.004;2023-02-19T05:14:55;21.67;;;14.73;;
59062;SDS011;44851;45.648;9.004;2023-02-19T05:17:21;22.50;;;13.60;;
59062;SDS011;44851;45.648;9.004;2023-02-19T05:19:46;20.87;;;14.10;;
59062;SDS011;44851;45.648;9.004;2023-02-19T05:22:12;22.07;;;13.97;;
59062;SDS011;44851;45.648;9.004;2023-02-19T05:24:37;24.60;;;14.83;;
59062;SDS011;44851;45.648;9.004;2023-02-19T05:27:03;21.70;;;14.07;;
59062;SDS011;44851;45.648;9.004;2023-02-19T05:29:29;23.73;;;14.63;;
59062;SDS011;44851;45.648;9.004;2023-02-19T05:31:55;24.87;;;15.00;;
59062;SDS011;44851;45.648;9.004;2023-02-19T05:34:20;22.10;;;14.50;;
59062;SDS011;44851;45.648;9.004;2023-02-19T05:36:46;21.83;;;14.40;;
59062;SDS011;44851;45.648;9.004;2023-02-19T05:39:11;21.27;;;14.47;;
59062;SDS011;44851;45.648;9.004;2023-02-19T05:41:37;21.40;;;13.97;;
59062;SDS011;44851;45.648;9.004;2023-02-19T05:44:03;20.00;;;13.00;;
59062;SDS011;44851;45.648;9.004;2023-02-19T05:46:28;24.00;;;15.33;;
59062;SDS011;44851;45.648;9.004;2023-02-19T05:48:54;23.57;;;15.43;;
59062;SDS011;44851;45.648;9.004;2023-02-19T05:51:21;28.93;;;17.93;;
59062;SDS011;44851;45.648;9.004;2023-02-19T05:53:48;26.50;;;17.07;;
59062;SDS011;44851;45.648;9.004;2023-02-19T05:59:16;24.53;;;16.10;;
59062;SDS011;44851;45.648;9.004;2023-02-19T06:01:44;27.47;;;16.97;;
59062;SDS011;44851;45.648;9.004;2023-02-19T06:04:11;32.13;;;16.73;;
59062;SDS011;44851;45.648;9.004;2023-02-19T06:06:38;23.83;;;15.33;;
59062;SDS011;44851;45.648;9.004;2023-02-19T06:09:05;23.50;;;14.63;;
59062;SDS011;44851;45.648;9.004;2023-02-19T06:11:31;27.40;;;16.70;;
59062;SDS011;44851;45.648;9.004;2023-02-19T06:13:57;26.60;;;16.77;;
59062;SDS011;44851;45.648;9.004;2023-02-19T06:16:23;25.13;;;15.80;;
59062;SDS011;44851;45.648;9.004;2023-02-19T06:18:48;24.80;;;14.80;;
59062;SDS011;44851;45.648;9.004;2023-02-19T06:21:14;26.17;;;16.50;;
59062;SDS011;44851;45.648;9.004;2023-02-19T06:23:41;26.77;;;15.13;;
59062;SDS011;44851;45.648;9.004;2023-02-19T06:26:17;29.43;;;17.50;;
59062;SDS011;44851;45.648;9.004;2023-02-19T06:28:46;24.53;;;16.77;;
59062;SDS011;44851;45.648;9.004;2023-02-19T06:31:13;24.73;;;16.47;;
59062;SDS011;44851;45.648;9.004;2023-02-19T06:33:39;29.90;;;18.07;;
59062;SDS011;44851;45.648;9.004;2023-02-19T06:36:06;28.00;;;17.27;;
59062;SDS011;44851;45.648;9.004;2023-02-19T06:38:34;28.50;;;17.37;;
59062;SDS011;44851;45.648;9.004;2023-02-19T06:41:00;27.37;;;16.73;;
59062;SDS011;44851;45.648;9.004;2023-02-19T06:43:26;29.20;;;16.27;;
59062;SDS011;44851;45.648;9.004;2023-02-19T06:45:52;27.60;;;16.63;;
59062;SDS011;44851;45.648;9.004;2023-02-19T06:48:17;26.57;;;16.53;;
59062;SDS011;44851;45.648;9.004;2023-02-19T06:50:43;25.50;;;15.03;;
59062;SDS011;44851;45.648;9.004;2023-02-19T06:53:08;24.63;;;15.40;;
59062;SDS011;44851;45.648;9.004;2023-02-19T06:55:35;25.77;;;15.57;;
59062;SDS011;44851;45.648;9.004;2023-02-19T06:58:02;26.40;;;15.20;;
59062;SDS011;44851;45.648;9.004;2023-02-19T07:00:27;25.93;;;15.03;;
59062;SDS011;44851;45.648;9.004;2023-02-19T07:02:53;24.60;;;15.70;;
59062;SDS011;44851;45.648;9.004;2023-02-19T07:05:21;26.60;;;15.77;;
59062;SDS011;44851;45.648;9.004;2023-02-19T07:07:47;25.43;;;15.23;;
59062;SDS011;44851;45.648;9.004;2023-02-19T07:10:13;24.23;;;15.43;;
59062;SDS011;44851;45.648;9.004;2023-02-19T07:12:38;26.30;;;15.80;;
59062;SDS011;44851;45.648;9.004;2023-02-19T07:15:04;30.07;;;17.57;;
59062;SDS011;44851;45.648;9.004;2023-02-19T07:17:29;28.80;;;17.80;;
59062;SDS011;44851;45.648;9.004;2023-02-19T07:19:55;26.20;;;15.97;;
59062;SDS011;44851;45.648;9.004;2023-02-19T07:22:20;26.80;;;17.57;;
59062;SDS011;44851;45.648;9.004;2023-02-19T07:24:45;26.93;;;17.57;;
59062;SDS011;44851;45.648;9.004;2023-02-19T07:27:11;27.17;;;16.23;;
59062;SDS011;44851;45.648;9.004;2023-02-19T07:29:36;30.03;;;17.60;;
59062;SDS011;44851;45.648;9.004;2023-02-19T07:32:02;26.20;;;16.20;;
59062;SDS011;44851;45.648;9.004;2023-02-19T07:34:28;27.00;;;17.73;;
59062;SDS011;44851;45.648;9.004;2023-02-19T07:36:53;28.80;;;16.60;;
59062;SDS011;44851;45.648;9.004;2023-02-19T07:39:19;27.93;;;15.87;;
59062;SDS011;44851;45.648;9.004;2023-02-19T07:41:44;28.30;;;17.90;;
59062;SDS011;44851;45.648;9.004;2023-02-19T07:44:10;28.90;;;17.93;;
59062;SDS011;44851;45.648;9.004;2023-02-19T07:46:37;29.57;;;17.73;;
59062;SDS011;44851;45.648;9.004;2023-02-19T07:49:03;30.87;;;18.50;;
59062;SDS011;44851;45.648;9.004;2023-02-19T07:51:28;27.07;;;18.87;;
59062;SDS011;44851;45.648;9.004;2023-02-19T07:53:54;30.70;;;19.10;;
59062;SDS011;44851;45.648;9.004;2023-02-19T07:56:19;27.10;;;17.03;;
59062;SDS011;44851;45.648;9.004;2023-02-19T07:58:45;30.43;;;18.20;;
59062;SDS011;44851;45.648;9.004;2023-02-19T08:04:03;31.70;;;18.20;;
59062;SDS011;44851;45.648;9.004;2023-02-19T08:06:29;29.37;;;18.93;;
59062;SDS011;44851;45.648;9.004;2023-02-19T08:08:54;30.93;;;19.37;;
59062;SDS011;44851;45.648;9.004;2023-02-19T08:11:21;30.17;;;19.17;;
59062;SDS011;44851;45.648;9.004;2023-02-19T08:14:05;32.70;;;20.20;;
59062;SDS011;44851;45.648;9.004;2023-02-19T08:16:31;33.03;;;20.73;;
59062;SDS011;44851;45.648;9.004;2023-02-19T08:18:56;34.50;;;21.23;;
59062;SDS011;44851;45.648;9.004;2023-02-19T08:21:21;30.83;;;20.43;;
59062;SDS011;44851;45.648;9.004;2023-02-19T08:23:48;39.23;;;23.10;;
59062;SDS011;44851;45.648;9.004;2023-02-19T08:26:14;34.40;;;21.50;;
59062;SDS011;44851;45.648;9.004;2023-02-19T08:28:40;36.03;;;21.63;;
59062;SDS011;44851;45.648;9.004;2023-02-19T08:31:06;31.60;;;20.47;;
59062;SDS011;44851;45.648;9.004;2023-02-19T08:33:33;31.00;;;20.10;;
59062;SDS011;44851;45.648;9.004;2023-02-19T08:36:05;34.13;;;22.83;;
59062;SDS011;44851;45.648;9.004;2023-02-19T08:38:33;35.90;;;22.03;;
59062;SDS011;44851;45.648;9.004;2023-02-19T08:41:04;35.90;;;23.10;;
59062;SDS011;44851;45.648;9.004;2023-02-19T08:43:31;32.23;;;21.20;;
59062;SDS011;44851;45.648;9.004;2023-02-19T08:45:56;34.97;;;22.07;;
59062;SDS011;44851;45.648;9.004;2023-02-19T08:48:22;35.10;;;22.37;;
59062;SDS011;44851;45.648;9.004;2023-02-19T08:50:54;40.83;;;24.83;;
59062;SDS011;44851;45.648;9.004;2023-02-19T08:53:21;35.13;;;22.47;;
59062;SDS011;44851;45.648;9.004;2023-02-19T08:55:47;35.27;;;23.60;;
59062;SDS011;44851;45.648;9.004;2023-02-19T08:58:13;41.27;;;23.80;;
59062;SDS011;44851;45.648;9.004;2023-02-19T09:00:39;38.47;;;24.43;;
59062;SDS011;44851;45.648;9.004;2023-02-19T09:03:04;36.60;;;24.10;;
59062;SDS011;44851;45.648;9.004;2023-02-19T09:05:30;39.50;;;23.73;;
59062;SDS011;44851;45.648;9.004;2023-02-19T09:07:55;35.10;;;23.10;;
59062;SDS011;44851;45.648;9.004;2023-02-19T09:10:21;40.17;;;25.70;;
59062;SDS011;44851;45.648;9.004;2023-02-19T09:12:46;37.73;;;24.67;;
59062;SDS011;44851;45.648;9.004;2023-02-19T09:15:12;38.70;;;24.60;;
59062;SDS011;44851;45.648;9.004;2023-02-19T09:17:37;40.83;;;24.77;;
59062;SDS011;44851;45.648;9.004;2023-02-19T09:20:03;37.77;;;25.40;;
59062;SDS011;44851;45.648;9.004;2023-02-19T09:22:28;38.07;;;24.53;;
59062;SDS011;44851;45.648;9.004;2023-02-19T09:24:54;34.37;;;22.13;;
59062;SDS011;44851;45.648;9.004;2023-02-19T09:27:19;36.27;;;23.97;;
59062;SDS011;44851;45.648;9.004;2023-02-19T09:29:45;34.77;;;22.70;;
59062;SDS011;44851;45.648;9.004;2023-02-19T09:32:11;31.27;;;20.57;;
59062;SDS011;44851;45.648;9.004;2023-02-19T09:34:37;35.83;;;22.40;;
59062;SDS011;44851;45.648;9.004;2023-02-19T09:37:05;34.80;;;22.17;;
59062;SDS011;44851;45.648;9.004;2023-02-19T09:39:32;33.17;;;20.73;;
59062;SDS011;44851;45.648;9.004;2023-02-19T09:44:44;33.67;;;21.57;;
59062;SDS011;44851;45.648;9.004;2023-02-19T09:47:22;32.63;;;21.93;;
59062;SDS011;44851;45.648;9.004;2023-02-19T09:49:51;35.80;;;24.00;;
59062;SDS011;44851;45.648;9.004;2023-02-19T09:54:48;34.87;;;23.20;;
59062;SDS011;44851;45.648;9.004;2023-02-19T09:57:15;36.97;;;23.77;;
59062;SDS011;44851;45.648;9.004;2023-02-19T09:59:46;34.27;;;23.03;;
59062;SDS011;44851;45.648;9.004;2023-02-19T10:02:18;30.87;;;20.33;;
59062;SDS011;44851;45.648;9.004;2023-02-19T10:04:45;34.43;;;21.97;;
59062;SDS011;44851;45.648;9.004;2023-02-19T10:07:16;35.27;;;21.23;;
59062;SDS011;44851;45.648;9.004;2023-02-19T10:09:44;29.43;;;20.63;;
59062;SDS011;44851;45.648;9.004;2023-02-19T10:12:17;30.90;;;20.07;;
59062;SDS011;44851;45.648;9.004;2023-02-19T10:14:49;26.13;;;17.57;;
59062;SDS011;44851;45.648;9.004;2023-02-19T10:17:20;26.20;;;17.60;;
59062;SDS011;44851;45.648;9.004;2023-02-19T10:19:49;20.23;;;13.93;;
59062;SDS011;44851;45.648;9.004;2023-02-19T10:22:15;21.90;;;14.23;;
59062;SDS011;44851;45.648;9.004;2023-02-19T10:24:41;21.53;;;14.13;;
59062;SDS011;44851;45.648;9.004;2023-02-19T10:27:12;15.43;;;12.17;;
59062;SDS011;44851;45.648;9.004;2023-02-19T10:29:38;15.07;;;11.10;;
59062;SDS011;44851;45.648;9.004;2023-02-19T10:32:11;18.10;;;10.67;;
59062;SDS011;44851;45.648;9.004;2023-02-19T10:37:31;13.43;;;9.27;;
59062;SDS011;44851;45.648;9.004;2023-02-19T10:39:57;16.90;;;10.17;;
59062;SDS011;44851;45.648;9.004;2023-02-19T10:42:22;13.93;;;10.20;;
59062;SDS011;44851;45.648;9.004;2023-02-19T10:44:56;18.33;;;11.53;;
59062;SDS011;44851;45.648;9.004;2023-02-19T10:47:25;13.97;;;10.00;;
59062;SDS011;44851;45.648;9.004;2023-02-19T10:49:55;15.07;;;10.93;;
59062;SDS011;44851;45.648;9.004;2023-02-19T10:52:26;14.30;;;10.20;;
59062;SDS011;44851;45.648;9.004;2023-02-19T10:55:13;15.77;;;10.90;;
59062;SDS011;44851;45.648;9.004;2023-02-19T10:57:45;17.53;;;11.77;;
59062;SDS011;44851;45.648;9.004;2023-02-19T11:02:39;16.63;;;10.77;;
59062;SDS011;44851;45.648;9.004;2023-02-19T11:07:46;16.50;;;10.50;;
59062;SDS011;44851;45.648;9.004;2023-02-19T11:12:59;14.63;;;11.03;;
59062;SDS011;44851;45.648;9.004;2023-02-19T11:15:28;13.37;;;9.53;;
59062;SDS011;44851;45.648;9.004;2023-02-19T11:17:56;13.90;;;9.50;;
59062;SDS011;44851;45.648;9.004;2023-02-19T11:20:26;15.03;;;9.30;;
59062;SDS011;44851;45.648;9.004;2023-02-19T11:22:54;13.03;;;9.13;;
59062;SDS011;44851;45.648;9.004;2023-02-19T11:25:23;11.67;;;7.80;;
59062;SDS011;44851;45.648;9.004;2023-02-19T11:28:02;15.37;;;9.13;;
59062;SDS011;44851;45.648;9.004;2023-02-19T11:33:12;18.13;;;9.77;;
59062;SDS011;44851;45.648;9.004;2023-02-19T11:35:48;13.23;;;8.23;;
59062;SDS011;44851;45.648;9.004;2023-02-19T11:38:17;10.97;;;8.30;;
59062;SDS011;44851;45.648;9.004;2023-02-19T11:45:50;11.03;;;6.77;;
59062;SDS011;44851;45.648;9.004;2023-02-19T11:51:20;10.63;;;7.13;;
59062;SDS011;44851;45.648;9.004;2023-02-19T11:54:02;12.00;;;8.70;;
59062;SDS011;44851;45.648;9.004;2023-02-19T11:56:33;12.37;;;8.37;;
59062;SDS011;44851;45.648;9.004;2023-02-19T11:59:03;13.73;;;8.30;;
59062;SDS011;44851;45.648;9.004;2023-02-19T12:04:48;11.23;;;7.27;;
59062;SDS011;44851;45.648;9.004;2023-02-19T12:07:22;8.53;;;6.60;;
59062;SDS011;44851;45.648;9.004;2023-02-19T12:10:19;8.77;;;5.80;;
59062;SDS011;44851;45.648;9.004;2023-02-19T12:13:14;8.50;;;6.40;;
59062;SDS011;44851;45.648;9.004;2023-02-19T12:18:47;7.37;;;6.10;;
59062;SDS011;44851;45.648;9.004;2023-02-19T12:37:52;10.43;;;6.77;;
59062;SDS011;44851;45.648;9.004;2023-02-19T12:43:14;8.97;;;6.53;;
59062;SDS011;44851;45.648;9.004;2023-02-19T12:45:47;11.53;;;7.90;;
59062;SDS011;44851;45.648;9.004;2023-02-19T12:48:25;10.43;;;7.37;;
59062;SDS011;44851;45.648;9.004;2023-02-19T12:50:53;10.80;;;6.50;;
59062;SDS011;44851;45.648;9.004;2023-02-19T12:53:48;9.50;;;7.10;;
59062;SDS011;44851;45.648;9.004;2023-02-19T12:56:21;9.97;;;6.87;;
59062;SDS011;44851;45.648;9.004;2023-02-19T12:59:03;8.77;;;6.83;;
59062;SDS011;44851;45.648;9.004;2023-02-19T13:01:37;8.70;;;6.50;;
59062;SDS011;44851;45.648;9.004;2023-02-19T13:09:33;8.77;;;6.27;;
59062;SDS011;44851;45.648;9.004;2023-02-19T13:12:13;11.73;;;7.17;;
59062;SDS011;44851;45.648;9.004;2023-02-19T13:14:46;8.57;;;6.57;;
59062;SDS011;44851;45.648;9.004;2023-02-19T13:20:19;10.33;;;7.17;;
59062;SDS011;44851;45.648;9.004;2023-02-19T13:36:38;8.07;;;6.23;;
59062;SDS011;44851;45.648;9.004;2023-02-19T13:39:04;11.23;;;6.87;;
59062;SDS011;44851;45.648;9.004;2023-02-19T13:41:32;7.23;;;5.73;;
59062;SDS011;44851;45.648;9.004;2023-02-19T13:44:03;11.47;;;6.03;;
59062;SDS011;44851;45.648;9.004;2023-02-19T13:46:36;8.20;;;5.80;;
59062;SDS011;44851;45.648;9.004;2023-02-19T13:51:52;7.93;;;5.93;;
59062;SDS011;44851;45.648;9.004;2023-02-19T13:54:20;7.03;;;5.50;;
59062;SDS011;44851;45.648;9.004;2023-02-19T13:57:17;8.03;;;5.43;;
59062;SDS011;44851;45.648;9.004;2023-02-19T13:59:47;7.67;;;5.33;;
59062;SDS011;44851;45.648;9.004;2023-02-19T14:04:53;7.00;;;5.53;;
59062;SDS011;44851;45.648;9.004;2023-02-19T14:09:55;7.43;;;5.00;;
59062;SDS011;44851;45.648;9.004;2023-02-19T14:12:25;7.27;;;5.37;;
59062;SDS011;44851;45.648;9.004;2023-02-19T14:15:42;8.60;;;5.60;;
59062;SDS011;44851;45.648;9.004;2023-02-19T14:18:38;7.70;;;5.27;;
59062;SDS011;44851;45.648;9.004;2023-02-19T14:21:13;7.13;;;5.13;;
59062;SDS011;44851;45.648;9.004;2023-02-19T14:23:41;7.07;;;5.03;;
59062;SDS011;44851;45.648;9.004;2023-02-19T14:26:07;10.10;;;5.77;;
59062;SDS011;44851;45.648;9.004;2023-02-19T14:28:34;7.50;;;4.50;;
59062;SDS011;44851;45.648;9.004;2023-02-19T14:33:51;5.93;;;4.97;;
59062;SDS011;44851;45.648;9.004;2023-02-19T14:39:26;6.20;;;4.73;;
59062;SDS011;44851;45.648;9.004;2023-02-19T14:42:01;8.77;;;4.60;;
59062;SDS011;44851;45.648;9.004;2023-02-19T14:47:24;7.67;;;5.53;;
59062;SDS011;44851;45.648;9.004;2023-02-19T14:49:58;6.73;;;4.73;;
59062;SDS011;44851;45.648;9.004;2023-02-19T14:52:48;7.53;;;5.17;;
59062;SDS011;44851;45.648;9.004;2023-02-19T14:57:51;7.50;;;4.80;;
59062;SDS011;44851;45.648;9.004;2023-02-19T15:00:23;7.83;;;4.93;;
59062;SDS011;44851;45.648;9.004;2023-02-19T15:02:53;6.93;;;4.83;;
59062;SDS011;44851;45.648;9.004;2023-02-19T15:05:28;5.90;;;4.80;;
59062;SDS011;44851;45.648;9.004;2023-02-19T15:07:56;6.27;;;4.50;;
59062;SDS011;44851;45.648;9.004;2023-02-19T15:10:25;6.20;;;4.57;;
59062;SDS011;44851;45.648;9.004;2023-02-19T15:12:54;7.63;;;5.20;;
59062;SDS011;44851;45.648;9.004;2023-02-19T15:15:21;8.13;;;4.93;;
59062;SDS011;44851;45.648;9.004;2023-02-19T15:17:48;7.67;;;5.10;;
59062;SDS011;44851;45.648;9.004;2023-02-19T15:20:22;8.83;;;5.30;;
59062;SDS011;44851;45.648;9.004;2023-02-19T15:22:50;8.00;;;5.67;;
59062;SDS011;44851;45.648;9.004;2023-02-19T15:25:18;9.47;;;6.30;;
59062;SDS011;44851;45.648;9.004;2023-02-19T15:27:46;7.70;;;6.03;;
59062;SDS011;44851;45.648;9.004;2023-02-19T15:30:44;8.10;;;5.40;;
59062;SDS011;44851;45.648;9.004;2023-02-19T15:33:12;9.80;;;5.97;;
59062;SDS011;44851;45.648;9.004;2023-02-19T15:35:50;10.60;;;6.60;;
59062;SDS011;44851;45.648;9.004;2023-02-19T15:38:17;10.73;;;6.13;;
59062;SDS011;44851;45.648;9.004;2023-02-19T15:40:44;9.77;;;6.33;;
59062;SDS011;44851;45.648;9.004;2023-02-19T15:43:22;9.17;;;6.63;;
59062;SDS011;44851;45.648;9.004;2023-02-19T15:46:10;8.47;;;6.93;;
59062;SDS011;44851;45.648;9.004;2023-02-19T15:48:48;7.00;;;5.90;;
59062;SDS011;44851;45.648;9.004;2023-02-19T15:51:22;7.30;;;5.43;;
59062;SDS011;44851;45.648;9.004;2023-02-19T15:53:57;7.90;;;5.77;;
59062;SDS011;44851;45.648;9.004;2023-02-19T15:56:31;10.17;;;7.30;;
59062;SDS011;44851;45.648;9.004;2023-02-19T15:59:03;10.77;;;6.90;;
59062;SDS011;44851;45.648;9.004;2023-02-19T16:01:35;10.23;;;6.93;;
59062;SDS011;44851;45.648;9.004;2023-02-19T16:04:02;10.90;;;7.13;;
59062;SDS011;44851;45.648;9.004;2023-02-19T16:06:30;10.73;;;7.23;;
59062;SDS011;44851;45.648;9.004;2023-02-19T16:09:37;11.07;;;7.73;;
59062;SDS011;44851;45.648;9.004;2023-02-19T16:12:19;8.73;;;6.00;;
59062;SDS011;44851;45.648;9.004;2023-02-19T16:14:46;9.73;;;7.13;;
59062;SDS011;44851;45.648;9.004;2023-02-19T16:17:15;9.83;;;6.90;;
59062;SDS011;44851;45.648;9.004;2023-02-19T16:22:14;10.43;;;7.73;;
59062;SDS011;44851;45.648;9.004;2023-02-19T16:25:04;11.03;;;7.57;;
59062;SDS011;44851;45.648;9.004;2023-02-19T16:35:57;10.50;;;7.70;;
59062;SDS011;44851;45.648;9.004;2023-02-19T16:44:28;10.27;;;7.87;;
59062;SDS011;44851;45.648;9.004;2023-02-19T16:46:49;12.60;;;8.40;;
59062;SDS011;44851;45.648;9.004;2023-02-19T16:49:17;10.40;;;8.10;;
59062;SDS011;44851;45.648;9.004;2023-02-19T16:51:45;10.73;;;7.70;;
59062;SDS011;44851;45.648;9.004;2023-02-19T16:54:11;10.47;;;8.17;;
59062;SDS011;44851;45.648;9.004;2023-02-19T16:56:37;12.90;;;8.60;;
59062;SDS011;44851;45.648;9.004;2023-02-19T16:59:03;11.13;;;7.60;;
59062;SDS011;44851;45.648;9.004;2023-02-19T17:01:31;13.37;;;8.00;;
59062;SDS011;44851;45.648;9.004;2023-02-19T17:03:59;10.70;;;8.10;;
59062;SDS011;44851;45.648;9.004;2023-02-19T17:06:28;13.60;;;7.67;;
59062;SDS011;44851;45.648;9.004;2023-02-19T17:08:54;14.17;;;7.87;;
59062;SDS011;44851;45.648;9.004;2023-02-19T17:11:20;12.30;;;8.70;;
59062;SDS011;44851;45.648;9.004;2023-02-19T17:13:46;13.20;;;8.37;;
59062;SDS011;44851;45.648;9.004;2023-02-19T17:16:21;16.13;;;9.60;;
59062;SDS011;44851;45.648;9.004;2023-02-19T17:18:49;12.23;;;8.73;;
59062;SDS011;44851;45.648;9.004;2023-02-19T17:21:17;13.87;;;9.70;;